createdAt,value
2018-12-22T00:02:12.428Z,10.50
2018-12-22T00:04:40.772Z,10.50
2018-12-22T00:07:08.884Z,10.50
2018-12-22T00:09:36.494Z,10.50
2018-12-22T00:12:04.572Z,10.40
2018-12-22T00:14:32.131Z,10.50
2018-12-22T00:16:59.801Z,10.60
2018-12-22T00:19:27.587Z,10.60
2018-12-22T00:21:55.240Z,10.50
2018-12-22T00:24:23.515Z,10.70
2018-12-22T00:26:51.042Z,10.70
2018-12-22T00:29:19.121Z,10.80
2018-12-22T00:31:46.724Z,10.60
2018-12-22T00:34:14.940Z,10.60
2018-12-22T00:36:42.540Z,10.50
2018-12-22T00:39:10.434Z,10.50
2018-12-22T00:41:38.016Z,10.50
2018-12-22T00:44:05.487Z,10.60
2018-12-22T00:46:33.048Z,10.90
2018-12-22T00:49:00.929Z,10.90
2018-12-22T00:51:28.496Z,10.90
2018-12-22T00:53:56.043Z,11.00
2018-12-22T00:56:23.586Z,11.00
2018-12-22T00:58:51.109Z,11.10
2018-12-22T01:01:18.672Z,11.10
2018-12-22T01:03:46.277Z,11.00
2018-12-22T01:06:13.793Z,10.80
2018-12-22T01:08:41.396Z,10.90
2018-12-22T01:11:08.931Z,11.00
2018-12-22T01:13:36.428Z,11.00
2018-12-22T01:16:03.977Z,11.00
2018-12-22T01:18:31.504Z,11.00
2018-12-22T01:20:59.012Z,10.90
2018-12-22T01:23:26.484Z,10.60
2018-12-22T01:25:53.978Z,10.60
2018-12-22T01:28:21.453Z,10.40
2018-12-22T01:30:48.970Z,10.50
2018-12-22T01:33:16.547Z,10.50
2018-12-22T01:35:44.168Z,10.60
2018-12-22T01:38:11.647Z,10.50
2018-12-22T01:40:39.129Z,10.70
2018-12-22T01:43:06.621Z,10.70
2018-12-22T01:45:34.157Z,10.70
2018-12-22T01:48:01.620Z,10.90
2018-12-22T01:50:29.079Z,10.90
2018-12-22T01:52:56.604Z,11.00
2018-12-22T01:55:24.111Z,11.10
2018-12-22T01:57:51.593Z,11.10
2018-12-22T02:00:19.055Z,11.10
2018-12-22T02:02:46.565Z,11.10
2018-12-22T02:05:14.150Z,11.00
2018-12-22T02:07:41.623Z,11.00
2018-12-22T02:10:09.154Z,11.10
2018-12-22T02:12:36.640Z,11.10
2018-12-22T02:15:04.391Z,11.00
2018-12-22T02:17:31.871Z,11.10
2018-12-22T02:19:59.320Z,11.10
2018-12-22T02:22:26.834Z,11.00
2018-12-22T02:24:54.342Z,10.90
2018-12-22T02:27:21.851Z,10.90
2018-12-22T02:29:49.360Z,11.00
2018-12-22T02:32:18.309Z,11.00
2018-12-22T02:34:46.242Z,11.00
2018-12-22T02:37:13.726Z,10.90
2018-12-22T02:39:41.239Z,11.00
2018-12-22T02:42:08.783Z,11.00
2018-12-22T02:44:36.236Z,11.00
2018-12-22T02:47:03.728Z,11.10
2018-12-22T02:49:31.191Z,10.90
2018-12-22T02:51:58.655Z,11.00
2018-12-22T02:54:26.217Z,11.00
2018-12-22T02:56:53.872Z,11.00
2018-12-22T02:59:21.359Z,11.00
2018-12-22T03:01:48.872Z,11.10
2018-12-22T03:04:16.410Z,11.30
2018-12-22T03:06:43.928Z,11.40
2018-12-22T03:09:11.423Z,11.40
2018-12-22T03:11:38.985Z,11.40
2018-12-22T03:14:06.462Z,11.40
2018-12-22T03:16:33.939Z,11.30
2018-12-22T03:19:01.565Z,11.40
2018-12-22T03:21:29.140Z,11.30
2018-12-22T03:23:56.668Z,11.30
2018-12-22T03:26:24.192Z,11.20
2018-12-22T03:28:51.746Z,11.10
2018-12-22T03:31:19.290Z,11.30
2018-12-22T03:33:46.773Z,11.40
2018-12-22T03:36:14.282Z,11.20
2018-12-22T03:38:41.795Z,11.20
2018-12-22T03:41:09.298Z,11.20
2018-12-22T03:43:36.779Z,11.10
2018-12-22T03:46:04.280Z,11.10
2018-12-22T03:48:31.792Z,11.20
2018-12-22T03:50:59.278Z,11.20
2018-12-22T03:53:26.755Z,11.10
2018-12-22T03:55:54.294Z,11.20
2018-12-22T03:58:21.746Z,11.10
2018-12-22T04:00:49.254Z,11.20
2018-12-22T04:03:16.739Z,11.30
2018-12-22T04:05:44.238Z,11.20
2018-12-22T04:08:11.712Z,11.20
2018-12-22T04:10:39.242Z,11.10
2018-12-22T04:13:06.702Z,11.20
2018-12-22T04:15:34.404Z,11.20
2018-12-22T04:18:01.864Z,11.20
2018-12-22T04:20:29.360Z,11.20
2018-12-22T04:22:56.860Z,11.20
2018-12-22T04:25:24.369Z,11.10
2018-12-22T04:27:51.840Z,11.00
2018-12-22T04:30:19.321Z,11.10
2018-12-22T04:32:46.799Z,11.10
2018-12-22T04:35:14.272Z,11.10
2018-12-22T04:37:41.739Z,11.10
2018-12-22T04:40:09.217Z,11.20
2018-12-22T04:42:36.740Z,11.10
2018-12-22T04:45:04.615Z,11.20
2018-12-22T04:48:35.257Z,11.10
2018-12-22T04:51:02.738Z,11.10
2018-12-22T04:53:30.255Z,11.10
2018-12-22T04:55:57.767Z,11.20
2018-12-22T04:58:25.283Z,11.20
2018-12-22T05:00:52.777Z,11.30
2018-12-22T05:03:20.465Z,11.30
2018-12-22T05:05:47.977Z,11.40
2018-12-22T05:08:15.468Z,11.50
2018-12-22T05:10:42.960Z,11.50
2018-12-22T05:13:10.447Z,11.50
2018-12-22T05:15:37.899Z,11.40
2018-12-22T05:18:05.399Z,11.40
2018-12-22T05:20:32.913Z,11.50
2018-12-22T05:23:00.404Z,11.60
2018-12-22T05:25:27.887Z,11.60
2018-12-22T05:27:55.369Z,11.70
2018-12-22T05:30:22.826Z,11.80
2018-12-22T05:32:50.304Z,11.90
2018-12-22T05:35:17.831Z,11.90
2018-12-22T05:37:45.323Z,12.00
2018-12-22T05:40:12.824Z,11.90
2018-12-22T05:42:40.306Z,11.80
2018-12-22T05:45:07.835Z,11.70
2018-12-22T05:47:35.313Z,11.50
2018-12-22T05:50:02.914Z,11.50
2018-12-22T05:52:30.496Z,11.30
2018-12-22T05:54:57.971Z,11.50
2018-12-22T05:57:25.434Z,11.70
2018-12-22T06:00:00.193Z,11.60
2018-12-22T06:02:22.441Z,11.50
2018-12-22T06:04:49.932Z,11.50
2018-12-22T06:07:17.428Z,11.50
2018-12-22T06:09:44.937Z,11.50
2018-12-22T06:12:12.453Z,11.60
2018-12-22T06:14:40.016Z,11.70
2018-12-22T06:17:07.483Z,11.80
2018-12-22T06:19:34.943Z,11.50
2018-12-22T06:22:02.598Z,11.40
2018-12-22T06:24:30.077Z,11.20
2018-12-22T06:26:57.609Z,11.10
2018-12-22T06:29:25.059Z,11.20
2018-12-22T06:31:52.601Z,11.20
2018-12-22T06:34:20.091Z,11.10
2018-12-22T06:36:47.551Z,11.10
2018-12-22T06:39:14.991Z,11.10
2018-12-22T06:41:42.463Z,11.10
2018-12-22T06:44:09.962Z,11.10
2018-12-22T06:46:37.445Z,11.10
2018-12-22T06:49:05.038Z,11.20
2018-12-22T06:51:32.580Z,11.20
2018-12-22T06:54:00.053Z,11.20
2018-12-22T06:56:27.520Z,11.20
2018-12-22T06:58:54.967Z,11.20
2018-12-22T07:01:22.504Z,11.10
2018-12-22T07:03:50.111Z,11.10
2018-12-22T07:06:17.813Z,10.90
2018-12-22T07:08:45.376Z,11.10
2018-12-22T07:11:12.873Z,11.10
2018-12-22T07:13:40.468Z,11.10
2018-12-22T07:16:07.949Z,11.20
2018-12-22T07:18:35.499Z,11.10
2018-12-22T07:21:03.049Z,11.20
2018-12-22T07:23:30.860Z,11.30
2018-12-22T07:25:58.409Z,11.20
2018-12-22T07:28:26.769Z,11.20
2018-12-22T07:30:54.658Z,11.20
2018-12-22T07:33:22.497Z,11.20
2018-12-22T07:35:50.048Z,11.00
2018-12-22T07:38:17.718Z,11.10
2018-12-22T07:40:45.844Z,11.20
2018-12-22T07:43:13.409Z,11.10
2018-12-22T07:45:40.951Z,11.10
2018-12-22T07:48:08.460Z,11.00
2018-12-22T07:50:35.998Z,10.90
2018-12-22T07:53:03.717Z,11.00
2018-12-22T07:55:31.296Z,11.00
2018-12-22T07:57:59.530Z,11.20
2018-12-22T08:00:34.607Z,11.20
2018-12-22T08:02:56.903Z,11.20
2018-12-22T08:05:24.441Z,11.30
2018-12-22T08:07:51.916Z,11.20
2018-12-22T08:10:26.168Z,11.20
2018-12-22T08:12:53.651Z,11.10
2018-12-22T08:15:21.230Z,11.20
2018-12-22T08:17:48.743Z,11.40
2018-12-22T08:20:16.250Z,11.40
2018-12-22T08:22:43.771Z,11.40
2018-12-22T08:25:11.335Z,11.50
2018-12-22T08:27:40.710Z,11.40
2018-12-22T08:30:09.624Z,11.40
2018-12-22T08:32:37.295Z,11.30
2018-12-22T08:35:05.073Z,11.40
2018-12-22T08:37:35.412Z,11.40
2018-12-22T08:40:02.277Z,11.40
2018-12-22T08:42:31.313Z,11.50
2018-12-22T08:44:58.857Z,11.70
2018-12-22T08:47:26.361Z,12.00
2018-12-22T08:49:53.823Z,11.90
2018-12-22T08:52:21.315Z,11.70
2018-12-22T08:54:48.833Z,11.50
2018-12-22T08:57:16.310Z,11.50
2018-12-22T08:59:43.841Z,11.50
2018-12-22T09:02:11.366Z,11.70
2018-12-22T09:04:38.924Z,12.00
2018-12-22T09:07:06.469Z,12.00
2018-12-22T09:09:34.014Z,11.80
2018-12-22T09:12:01.570Z,11.80
2018-12-22T09:14:29.096Z,11.80
2018-12-22T09:16:56.607Z,12.10
2018-12-22T09:19:24.505Z,12.20
2018-12-22T09:21:52.014Z,12.30
2018-12-22T09:24:19.604Z,12.30
2018-12-22T09:26:47.123Z,12.40
2018-12-22T09:29:14.653Z,12.50
2018-12-22T09:31:42.245Z,12.50
2018-12-22T09:34:13.381Z,12.40
2018-12-22T09:36:39.376Z,12.80
2018-12-22T09:39:08.078Z,13.00
2018-12-22T09:41:42.421Z,13.20
2018-12-22T09:44:09.941Z,13.20
2018-12-22T09:46:37.537Z,13.20
2018-12-22T09:49:05.141Z,13.10
2018-12-22T09:51:32.779Z,13.10
2018-12-22T09:54:00.320Z,13.10
2018-12-22T09:56:27.883Z,13.20
2018-12-22T09:58:55.880Z,13.20
2018-12-22T10:01:23.561Z,13.10
2018-12-22T10:03:51.150Z,13.00
2018-12-22T10:06:18.814Z,12.80
2018-12-22T10:08:46.978Z,12.50
2018-12-22T10:11:14.783Z,12.60
2018-12-22T10:13:42.392Z,12.70
2018-12-22T10:16:09.983Z,12.50
2018-12-22T10:18:37.623Z,12.30
2018-12-22T10:21:05.231Z,12.20
2018-12-22T10:23:32.784Z,12.10
2018-12-22T10:26:00.356Z,12.20
2018-12-22T10:28:27.872Z,12.10
2018-12-22T10:30:55.387Z,12.20
2018-12-22T10:33:22.902Z,12.20
2018-12-22T10:35:50.416Z,12.40
2018-12-22T10:38:17.994Z,12.60
2018-12-22T10:40:45.514Z,12.50
2018-12-22T10:43:13.183Z,12.60
2018-12-22T10:45:40.778Z,12.30
2018-12-22T10:48:08.614Z,11.80
2018-12-22T10:50:36.532Z,11.40
2018-12-22T10:53:04.995Z,11.20
2018-12-22T10:55:32.864Z,11.20
2018-12-22T10:58:00.454Z,11.00
2018-12-22T11:00:28.608Z,11.00
2018-12-22T11:02:56.970Z,11.30
2018-12-22T11:05:25.203Z,11.50
2018-12-22T11:07:53.166Z,11.40
2018-12-22T11:10:24.016Z,11.50
2018-12-22T11:12:53.945Z,11.80
2018-12-22T11:15:21.527Z,11.90
2018-12-22T11:17:49.066Z,11.80
2018-12-22T11:20:16.781Z,11.80
2018-12-22T11:22:44.341Z,11.70
2018-12-22T11:25:15.687Z,11.50
2018-12-22T11:27:43.254Z,11.50
2018-12-22T11:30:14.554Z,11.60
2018-12-22T11:32:42.213Z,11.70
2018-12-22T11:35:09.707Z,11.50
2018-12-22T11:37:37.266Z,11.20
2018-12-22T11:40:06.085Z,11.20
2018-12-22T11:42:33.615Z,11.10
2018-12-22T11:45:01.146Z,11.30
2018-12-22T11:47:36.726Z,11.40
2018-12-22T11:50:05.748Z,11.40
2018-12-22T11:52:33.312Z,11.40
2018-12-22T11:55:01.156Z,11.30
2018-12-22T11:57:29.001Z,11.60
2018-12-22T11:59:56.522Z,11.70
2018-12-22T12:02:24.113Z,11.70
2018-12-22T12:04:51.686Z,11.90
2018-12-22T12:07:19.232Z,12.30
2018-12-22T12:09:46.750Z,12.20
2018-12-22T12:12:14.532Z,12.50
2018-12-22T12:14:42.752Z,12.60
2018-12-22T12:17:20.799Z,12.80
2018-12-22T12:19:48.373Z,12.80
2018-12-22T12:22:17.272Z,12.70
2018-12-22T12:24:44.942Z,12.50
2018-12-22T12:27:12.658Z,12.40
2018-12-22T12:29:40.303Z,11.90
2018-12-22T12:32:07.976Z,11.60
2018-12-22T12:34:35.552Z,11.60
2018-12-22T12:37:03.076Z,11.60
2018-12-22T12:39:30.662Z,11.60
2018-12-22T12:41:58.410Z,11.50
2018-12-22T12:44:26.163Z,11.40
2018-12-22T12:46:54.559Z,11.40
2018-12-22T12:49:22.467Z,11.50
2018-12-22T12:51:50.040Z,11.60
2018-12-22T12:54:18.314Z,11.60
2018-12-22T12:56:50.222Z,11.80
2018-12-22T12:59:17.769Z,11.80
2018-12-22T13:01:45.362Z,11.70
2018-12-22T13:04:12.893Z,11.90
2018-12-22T13:06:40.452Z,12.10
2018-12-22T13:09:08.662Z,12.40
2018-12-22T13:11:36.327Z,12.90
2018-12-22T13:14:07.888Z,13.10
2018-12-22T13:16:35.906Z,13.50
2018-12-22T13:19:03.476Z,13.50
2018-12-22T13:21:31.238Z,13.20
2018-12-22T13:23:58.800Z,12.50
2018-12-22T13:26:26.574Z,12.30
2018-12-22T13:28:54.083Z,12.30
2018-12-22T13:31:24.142Z,11.90
2018-12-22T13:33:51.899Z,11.60
2018-12-22T13:36:20.326Z,11.60
2018-12-22T13:39:24.657Z,11.70
2018-12-22T13:41:52.172Z,11.70
2018-12-22T13:44:19.689Z,11.90
2018-12-22T13:46:47.233Z,11.80
2018-12-22T13:49:14.790Z,11.60
2018-12-22T13:51:43.793Z,11.50
2018-12-22T13:54:11.755Z,11.50
2018-12-22T13:56:39.263Z,11.60
2018-12-22T13:59:06.844Z,11.60
2018-12-22T14:01:38.106Z,11.40
2018-12-22T14:04:05.727Z,11.40
2018-12-22T14:06:37.641Z,11.60
2018-12-22T14:09:06.914Z,11.60
2018-12-22T14:11:34.588Z,11.80
2018-12-22T14:14:02.125Z,11.60
2018-12-22T14:16:39.706Z,11.70
2018-12-22T14:19:08.129Z,11.80
2018-12-22T14:21:35.637Z,11.70
2018-12-22T14:24:11.167Z,11.50
2018-12-22T14:26:38.713Z,11.30
2018-12-22T14:29:06.249Z,11.20
2018-12-22T14:31:33.935Z,11.10
2018-12-22T14:34:06.181Z,11.30
2018-12-22T14:36:33.734Z,11.40
2018-12-22T14:39:01.261Z,11.60
2018-12-22T14:41:28.761Z,11.80
2018-12-22T14:43:56.615Z,11.70
2018-12-22T14:46:24.156Z,11.60
2018-12-22T14:48:51.737Z,11.50
2018-12-22T14:51:19.383Z,11.80
2018-12-22T14:53:46.958Z,11.80
2018-12-22T14:56:15.255Z,11.80
2018-12-22T14:58:42.748Z,11.60
2018-12-22T15:01:14.089Z,11.40
2018-12-22T15:03:41.807Z,11.60
2018-12-22T15:06:09.415Z,11.70
2018-12-22T15:08:36.958Z,11.40
2018-12-22T15:11:04.779Z,11.40
2018-12-22T15:13:32.760Z,11.40
2018-12-22T15:16:00.304Z,11.40
2018-12-22T15:18:28.109Z,11.30
2018-12-22T15:20:56.930Z,11.30
2018-12-22T15:23:24.754Z,11.10
2018-12-22T15:25:52.618Z,11.10
2018-12-22T15:28:20.175Z,11.40
2018-12-22T15:30:48.451Z,11.20
2018-12-22T15:33:15.999Z,10.90
2018-12-22T15:35:43.578Z,10.90
2018-12-22T15:38:11.103Z,10.80
2018-12-22T15:40:38.660Z,10.80
2018-12-22T15:43:06.687Z,10.80
2018-12-22T15:45:34.270Z,10.70
2018-12-22T15:48:02.061Z,10.80
2018-12-22T15:50:32.453Z,10.70
2018-12-22T15:53:00.753Z,10.60
2018-12-22T15:55:28.348Z,10.40
2018-12-22T15:57:55.883Z,10.40
2018-12-22T16:00:23.544Z,10.50
2018-12-22T16:02:53.432Z,10.50
2018-12-22T16:05:21.255Z,10.30
2018-12-22T16:07:49.039Z,10.60
2018-12-22T16:10:16.647Z,10.60
2018-12-22T16:12:45.199Z,10.60
2018-12-22T16:15:15.122Z,10.80
2018-12-22T16:17:43.127Z,10.70
2018-12-22T16:20:12.149Z,10.70
2018-12-22T16:22:42.446Z,10.70
2018-12-22T16:25:11.649Z,10.70
2018-12-22T16:27:39.857Z,10.60
2018-12-22T16:30:13.846Z,10.50
2018-12-22T16:32:42.077Z,10.70
2018-12-22T16:35:09.634Z,10.80
2018-12-22T16:37:37.373Z,10.80
2018-12-22T16:40:07.316Z,10.70
2018-12-22T16:42:34.900Z,10.70
2018-12-22T16:45:04.140Z,10.80
2018-12-22T16:47:31.771Z,10.80
2018-12-22T16:49:59.530Z,10.80
2018-12-22T16:52:34.534Z,10.90
2018-12-22T16:55:02.235Z,11.00
2018-12-22T16:57:29.782Z,11.10
2018-12-22T16:59:57.270Z,11.20
2018-12-22T17:02:35.821Z,11.20
2018-12-22T17:05:03.671Z,10.90
2018-12-22T17:07:31.248Z,11.10
2018-12-22T17:09:58.782Z,11.10
2018-12-22T17:12:26.360Z,11.20
2018-12-22T17:14:54.290Z,11.00
2018-12-22T17:17:22.155Z,11.00
2018-12-22T17:19:49.794Z,10.90
2018-12-22T17:22:39.402Z,10.90
2018-12-22T17:25:16.073Z,10.80
2018-12-22T17:27:43.629Z,10.90
2018-12-22T17:30:11.253Z,11.10
2018-12-22T17:32:39.201Z,11.10
2018-12-22T17:35:09.630Z,11.20
2018-12-22T17:37:38.058Z,11.20
2018-12-22T17:40:09.476Z,11.30
2018-12-22T17:42:35.710Z,11.30
2018-12-22T17:45:03.850Z,11.30
2018-12-22T17:47:31.396Z,11.20
2018-12-22T17:50:00.162Z,11.30
2018-12-22T17:52:27.807Z,11.30
2018-12-22T17:54:55.347Z,11.40
2018-12-22T17:57:23.180Z,11.50
2018-12-22T17:59:51.243Z,11.50
2018-12-22T18:02:18.830Z,11.50
2018-12-22T18:04:47.116Z,11.40
2018-12-22T18:07:14.691Z,11.30
2018-12-22T18:09:42.862Z,11.30
2018-12-22T18:12:10.720Z,11.20
2018-12-22T18:14:38.267Z,11.00
2018-12-22T18:17:05.950Z,10.90
2018-12-22T18:19:33.519Z,10.90
2018-12-22T18:22:01.453Z,10.80
2018-12-22T18:24:29.007Z,10.90
2018-12-22T18:26:56.538Z,10.90
2018-12-22T18:29:24.161Z,10.80
2018-12-22T18:31:52.011Z,11.00
2018-12-22T18:34:19.601Z,11.20
2018-12-22T18:36:47.119Z,11.30
2018-12-22T18:39:15.114Z,11.20
2018-12-22T18:41:43.473Z,11.20
2018-12-22T18:44:11.026Z,11.20
2018-12-22T18:46:38.589Z,11.20
2018-12-22T18:49:06.153Z,11.10
2018-12-22T18:51:33.745Z,11.00
2018-12-22T18:54:01.311Z,11.10
2018-12-22T18:56:29.089Z,11.20
2018-12-22T18:58:58.504Z,11.30
2018-12-22T19:01:26.107Z,11.20
2018-12-22T19:03:54.022Z,11.10
2018-12-22T19:06:21.590Z,11.30
2018-12-22T19:08:50.441Z,11.10
2018-12-22T19:11:20.080Z,11.00
2018-12-22T19:13:47.693Z,10.90
2018-12-22T19:16:15.237Z,10.80
2018-12-22T19:18:42.815Z,10.60
2018-12-22T19:21:10.941Z,10.60
2018-12-22T19:23:38.589Z,10.70
2018-12-22T19:26:06.327Z,10.80
2018-12-22T19:28:34.126Z,10.70
2018-12-22T19:31:01.840Z,10.80
2018-12-22T19:33:29.453Z,10.80
2018-12-22T19:35:57.163Z,10.80
2018-12-22T19:38:24.917Z,10.80
2018-12-22T19:40:52.557Z,10.80
2018-12-22T19:43:20.160Z,10.70
2018-12-22T19:45:47.777Z,10.80
2018-12-22T19:48:15.309Z,10.80
2018-12-22T19:50:42.928Z,10.80
2018-12-22T19:53:10.587Z,10.70
2018-12-22T19:55:38.291Z,10.80
2018-12-22T19:58:06.065Z,10.90
2018-12-22T20:00:33.718Z,11.00
2018-12-22T20:03:02.031Z,10.80
2018-12-22T20:05:29.594Z,10.60
2018-12-22T20:07:57.574Z,10.60
2018-12-22T20:10:25.125Z,10.50
2018-12-22T20:12:52.740Z,10.60
2018-12-22T20:15:21.151Z,10.70
2018-12-22T20:17:48.938Z,10.70
2018-12-22T20:20:16.735Z,10.50
2018-12-22T20:22:44.441Z,10.50
2018-12-22T20:25:12.269Z,10.40
2018-12-22T20:27:39.945Z,10.60
2018-12-22T20:30:08.060Z,10.60
2018-12-22T20:32:36.548Z,10.40
2018-12-22T20:35:04.338Z,10.60
2018-12-22T20:37:31.882Z,10.30
2018-12-22T20:39:59.946Z,10.30
2018-12-22T20:42:27.495Z,10.20
2018-12-22T20:44:55.051Z,10.40
2018-12-22T20:47:22.621Z,10.40
2018-12-22T20:49:50.245Z,10.50
2018-12-22T20:52:17.881Z,10.30
2018-12-22T20:54:45.506Z,10.20
2018-12-22T20:57:13.125Z,10.20
2018-12-22T20:59:40.655Z,10.20
2018-12-22T21:02:08.404Z,10.20
2018-12-22T21:04:36.018Z,10.00
2018-12-22T21:07:03.631Z,10.00
2018-12-22T21:09:31.187Z,9.80
2018-12-22T21:11:58.835Z,9.50
2018-12-22T21:14:26.419Z,9.70
2018-12-22T21:16:54.090Z,9.90
2018-12-22T21:19:21.746Z,9.90
2018-12-22T21:21:49.399Z,10.10
2018-12-22T21:24:17.097Z,10.10
2018-12-22T21:26:44.868Z,10.00
2018-12-22T21:29:12.451Z,9.90
2018-12-22T21:31:40.037Z,10.10
2018-12-22T21:34:07.597Z,10.00
2018-12-22T21:36:35.112Z,10.00
2018-12-22T21:39:03.898Z,10.10
2018-12-22T21:41:31.483Z,10.00
2018-12-22T21:43:59.143Z,9.80
2018-12-22T21:46:26.754Z,9.90
2018-12-22T21:48:54.425Z,10.20
2018-12-22T21:51:22.015Z,10.40
2018-12-22T21:53:49.575Z,10.30
2018-12-22T21:56:17.214Z,10.10
2018-12-22T21:58:44.753Z,9.80
2018-12-22T22:01:12.341Z,10.10
2018-12-22T22:03:39.840Z,10.10
2018-12-22T22:06:07.390Z,10.20
2018-12-22T22:08:34.917Z,10.20
2018-12-22T22:11:02.482Z,10.10
2018-12-22T22:13:30.043Z,10.30
2018-12-22T22:15:57.572Z,10.40
2018-12-22T22:18:25.130Z,10.40
2018-12-22T22:20:52.675Z,10.20
2018-12-22T22:23:20.237Z,10.10
2018-12-22T22:25:47.840Z,10.30
2018-12-22T22:28:15.457Z,10.20
2018-12-22T22:30:43.032Z,10.00
2018-12-22T22:33:10.659Z,10.20
2018-12-22T22:35:38.191Z,10.20
2018-12-22T22:38:05.782Z,10.10
2018-12-22T22:40:33.335Z,10.10
2018-12-22T22:43:00.887Z,10.10
2018-12-22T22:45:28.406Z,10.30
2018-12-22T22:47:55.955Z,10.30
2018-12-22T22:50:23.478Z,10.20
2018-12-22T22:52:51.100Z,10.10
2018-12-22T22:55:18.679Z,10.10
2018-12-22T22:57:46.246Z,10.10
2018-12-22T23:00:20.307Z,10.10
2018-12-22T23:02:48.175Z,10.00
2018-12-22T23:05:16.005Z,10.00
2018-12-22T23:07:43.597Z,10.10
2018-12-22T23:10:11.216Z,10.10
2018-12-22T23:12:38.760Z,10.20
2018-12-22T23:15:07.241Z,10.20
2018-12-22T23:17:35.188Z,10.30
2018-12-22T23:20:02.798Z,10.30
2018-12-22T23:22:30.263Z,10.40
2018-12-22T23:24:57.780Z,10.40
2018-12-22T23:27:25.292Z,10.60
2018-12-22T23:29:53.363Z,10.80
2018-12-22T23:32:20.945Z,10.70
2018-12-22T23:34:48.779Z,10.70
2018-12-22T23:37:16.611Z,10.70
2018-12-22T23:39:44.155Z,10.80
2018-12-22T23:42:11.678Z,10.80
2018-12-22T23:44:39.201Z,10.60
2018-12-22T23:47:07.020Z,10.70
2018-12-22T23:49:34.590Z,10.80
2018-12-22T23:52:02.071Z,11.00
2018-12-22T23:54:29.691Z,10.90
2018-12-22T23:56:57.210Z,10.90
2018-12-22T23:59:24.700Z,10.60
